createdAt,value
2022-08-18T00:00:33.083Z,17.28
2022-08-18T00:07:36.796Z,17.21
2022-08-18T00:14:41.250Z,17.10
2022-08-18T00:21:43.484Z,17.11
2022-08-18T00:28:45.721Z,17.10
2022-08-18T00:35:49.277Z,17.11
2022-08-18T00:42:55.503Z,17.24
2022-08-18T00:49:57.732Z,17.33
2022-08-18T00:57:03.393Z,17.39
2022-08-18T01:04:09.793Z,17.45
2022-08-18T01:11:12.052Z,17.25
2022-08-18T01:18:34.608Z,17.13
2022-08-18T01:25:56.839Z,17.20
2022-08-18T01:32:59.224Z,17.01
2022-08-18T01:41:24.064Z,16.68
2022-08-18T01:47:31.313Z,16.83
2022-08-18T01:54:50.751Z,16.91
2022-08-18T02:01:56.221Z,16.91
2022-08-18T02:09:00.889Z,16.90
2022-08-18T02:16:04.718Z,16.99
2022-08-18T02:23:06.945Z,17.06
2022-08-18T02:30:13.075Z,17.20
2022-08-18T02:37:15.773Z,17.29
2022-08-18T02:44:18.097Z,17.37
2022-08-18T02:51:21.720Z,17.44
2022-08-18T02:58:31.836Z,17.50
2022-08-18T03:05:35.882Z,17.52
2022-08-18T03:12:41.885Z,17.54
2022-08-18T03:19:47.851Z,17.20
2022-08-18T03:26:50.572Z,16.95
2022-08-18T03:33:59.182Z,16.91
2022-08-18T03:41:02.002Z,17.03
2022-08-18T03:48:04.792Z,17.04
2022-08-18T03:55:10.826Z,17.14
2022-08-18T04:02:13.315Z,16.98
2022-08-18T04:09:15.630Z,17.12
2022-08-18T04:16:19.203Z,17.12
2022-08-18T04:23:21.423Z,17.15
2022-08-18T04:30:23.898Z,17.14
2022-08-18T04:37:32.285Z,17.29
2022-08-18T04:44:37.780Z,17.20
2022-08-18T04:52:36.484Z,17.17
2022-08-18T04:59:07.686Z,17.38
2022-08-18T05:06:10.010Z,17.58
2022-08-18T05:13:16.548Z,17.63
2022-08-18T05:20:20.480Z,17.67
2022-08-18T05:27:23.655Z,17.71
2022-08-18T05:34:26.034Z,17.54
2022-08-18T05:41:31.492Z,17.76
2022-08-18T05:48:34.012Z,17.89
2022-08-18T05:55:57.338Z,17.80
2022-08-18T06:03:03.589Z,17.95
2022-08-18T06:10:07.501Z,18.24
2022-08-18T06:17:18.481Z,18.44
2022-08-18T06:24:27.758Z,18.40
2022-08-18T06:31:40.788Z,18.69
2022-08-18T06:38:57.059Z,18.83
2022-08-18T06:46:00.715Z,18.71
2022-08-18T06:53:05.217Z,19.04
2022-08-18T07:00:09.825Z,19.28
2022-08-18T07:07:18.319Z,19.06
2022-08-18T07:14:21.903Z,19.10
2022-08-18T07:21:25.223Z,19.37
2022-08-18T07:28:30.435Z,19.31
2022-08-18T07:35:37.539Z,19.26
2022-08-18T07:43:00.497Z,19.47
2022-08-18T07:50:31.428Z,19.96
2022-08-18T07:57:52.401Z,19.76
2022-08-18T08:04:58.897Z,19.47
2022-08-18T08:12:05.262Z,19.68
2022-08-18T08:19:15.392Z,19.21
2022-08-18T08:26:24.827Z,19.28
2022-08-18T08:33:30.695Z,18.88
2022-08-18T08:40:37.663Z,18.91
2022-08-18T08:47:58.482Z,18.85
2022-08-18T08:55:11.155Z,19.07
2022-08-18T09:02:46.577Z,19.14
2022-08-18T09:10:04.719Z,19.75
2022-08-18T09:17:17.304Z,19.69
2022-08-18T09:24:22.767Z,20.04
2022-08-18T09:31:25.557Z,20.60
2022-08-18T09:38:48.947Z,21.06
2022-08-18T09:45:57.585Z,21.42
2022-08-18T09:53:14.704Z,21.71
2022-08-18T10:07:50.336Z,22.74
2022-08-18T10:15:09.077Z,23.84
2022-08-18T10:22:13.033Z,23.75
2022-08-18T10:29:50.976Z,24.53
2022-08-18T10:36:53.602Z,24.22
2022-08-18T10:43:58.021Z,24.75
2022-08-18T10:58:53.445Z,25.94
2022-08-18T11:06:03.293Z,26.32
2022-08-18T11:20:33.761Z,25.82
2022-08-18T11:27:42.353Z,24.34
2022-08-18T11:42:08.630Z,25.16
2022-08-18T11:49:24.336Z,25.53
2022-08-18T11:56:31.381Z,25.26
2022-08-18T12:03:41.761Z,24.04
2022-08-18T12:10:45.496Z,24.75
2022-08-18T12:17:55.489Z,24.34
2022-08-18T12:24:58.311Z,26.05
2022-08-18T12:32:02.075Z,26.94
2022-08-18T12:39:04.755Z,24.22
2022-08-18T12:46:08.446Z,26.10
2022-08-18T12:53:17.947Z,26.06
2022-08-18T13:00:33.100Z,26.43
2022-08-18T13:07:35.763Z,25.04
2022-08-18T13:14:43.433Z,24.60
2022-08-18T13:21:45.930Z,24.37
2022-08-18T13:28:57.069Z,24.87
2022-08-18T13:36:05.728Z,24.67
2022-08-18T13:43:09.221Z,24.31
2022-08-18T13:50:11.996Z,24.93
2022-08-18T13:57:15.632Z,24.94
2022-08-18T14:04:20.475Z,25.00
2022-08-18T14:11:27.296Z,25.24
2022-08-18T14:18:36.264Z,25.47
2022-08-18T14:40:27.010Z,26.08
2022-08-18T14:47:35.555Z,26.06
2022-08-18T14:54:42.138Z,25.94
2022-08-18T15:01:50.171Z,26.19
2022-08-18T15:08:54.178Z,25.37
2022-08-18T15:16:01.774Z,25.21
2022-08-18T15:23:24.817Z,25.48
2022-08-18T15:30:30.167Z,25.85
2022-08-18T15:37:33.386Z,25.84
2022-08-18T15:44:37.294Z,25.76
2022-08-18T15:51:42.713Z,25.61
2022-08-18T15:58:47.673Z,25.32
2022-08-18T16:05:55.168Z,25.36
2022-08-18T16:12:57.473Z,25.34
2022-08-18T16:20:00.376Z,25.28
2022-08-18T16:27:06.525Z,25.26
2022-08-18T16:34:09.425Z,25.03
2022-08-18T16:41:14.969Z,25.02
2022-08-18T16:48:20.438Z,24.71
2022-08-18T16:55:22.812Z,24.55
2022-08-18T17:02:43.557Z,24.53
2022-08-18T17:09:49.656Z,24.45
2022-08-18T17:16:55.451Z,24.28
2022-08-18T17:23:57.981Z,24.07
2022-08-18T17:31:01.591Z,23.91
2022-08-18T17:38:08.738Z,23.88
2022-08-18T17:45:13.767Z,23.68
2022-08-18T17:52:26.098Z,23.45
2022-08-18T17:59:42.899Z,23.35
2022-08-18T18:06:49.632Z,23.14
2022-08-18T18:13:54.486Z,22.98
2022-08-18T18:21:04.342Z,22.86
2022-08-18T18:28:06.658Z,22.78
2022-08-18T18:35:16.137Z,22.67
2022-08-18T18:42:19.511Z,22.55
2022-08-18T18:49:23.866Z,22.41
2022-08-18T18:56:29.607Z,22.28
2022-08-18T19:03:35.255Z,21.97
2022-08-18T19:10:39.776Z,21.89
2022-08-18T19:17:44.993Z,21.83
2022-08-18T19:24:51.606Z,21.72
2022-08-18T19:31:58.761Z,21.57
2022-08-18T19:39:12.956Z,21.50
2022-08-18T19:46:17.545Z,21.42
2022-08-18T19:53:29.198Z,21.29
2022-08-18T20:00:39.329Z,21.22
2022-08-18T20:07:55.703Z,21.17
2022-08-18T20:15:00.154Z,21.11
2022-08-18T20:22:04.444Z,21.02
2022-08-18T20:29:07.489Z,20.93
2022-08-18T20:36:17.565Z,20.94
2022-08-18T20:43:32.041Z,20.95
2022-08-18T20:50:51.297Z,20.91
2022-08-18T20:57:55.584Z,20.88
2022-08-18T21:05:02.554Z,20.86
2022-08-18T21:12:05.904Z,20.80
2022-08-18T21:19:13.800Z,20.74
2022-08-18T21:26:17.468Z,20.58
2022-08-18T21:33:20.274Z,20.58
2022-08-18T21:40:29.934Z,20.51
2022-08-18T21:47:33.971Z,20.54
2022-08-18T21:54:36.288Z,20.52
2022-08-18T22:01:48.214Z,20.41
2022-08-18T22:08:56.344Z,20.26
2022-08-18T22:15:59.478Z,20.26
2022-08-18T22:23:24.471Z,20.18
2022-08-18T22:30:28.202Z,20.14
2022-08-18T22:37:32.522Z,20.16
2022-08-18T22:44:35.105Z,20.06
2022-08-18T22:51:39.382Z,20.09
2022-08-18T22:58:42.382Z,20.00
2022-08-18T23:05:47.589Z,19.98
2022-08-18T23:12:51.404Z,19.98
2022-08-18T23:19:54.088Z,20.07
2022-08-18T23:26:57.382Z,19.98
2022-08-18T23:34:01.542Z,19.92
2022-08-18T23:41:04.423Z,19.87
2022-08-18T23:48:07.034Z,19.69
2022-08-18T23:55:11.893Z,19.59
